Time;durP1;ratioP1;P1;durP2;ratioP2;P2;SDS_P1;SDS_P2;PMS_P1;PMS_P2;Temp;Humidity;BMP_temperature;BMP_pressure;BME280_temperature;BME280_humidity;BME280_pressure;Samples;Min_cycle;Max_cycle;Signal;HPM_P1;HPM_P2
2023/10/11 00:08:18;;;;;;;1999.90;999.90;;;;;;;17.06;84.29;101304.53;10185474;28;20437;-63
2023/10/11 00:13:22;;;;;;;1999.90;999.90;;;;;;;17.02;82.97;101291.66;10172134;29;20056;-63
2023/10/11 00:18:30;;;;;;;1999.90;999.90;;;;;;;17.02;82.45;101297.78;10186423;28;20056;-63
2023/10/11 00:23:33;;;;;;;1999.90;999.90;;;;;;;17.13;83.89;101286.41;10185390;29;20099;-63
2023/10/11 00:28:37;;;;;;;1999.90;999.90;;;;;;;16.99;82.49;101305.13;10170915;28;20499;-63
2023/10/11 00:33:41;;;;;;;1999.90;999.90;;;;;;;17.02;83.03;101291.66;10171146;29;20088;-63
2023/10/11 00:38:47;;;;;;;1999.90;999.90;;;;;;;17.04;82.85;101295.84;10170535;28;20056;-63
2023/10/11 00:43:54;;;;;;;1999.90;999.90;;;;;;;16.89;81.53;101291.75;10171156;28;20067;-63
2023/10/11 00:49:08;;;;;;;1999.90;999.90;;;;;;;17.06;82.94;101280.75;10185166;29;20102;-63
2023/10/11 00:54:15;;;;;;;1999.90;999.90;;;;;;;16.91;81.87;101281.88;10170761;29;20052;-63
2023/10/11 00:59:21;;;;;;;1999.90;999.90;;;;;;;16.91;81.34;101268.66;10184750;28;20066;-63
2023/10/11 01:04:27;;;;;;;1999.90;999.90;;;;;;;16.98;82.18;101272.53;10184120;28;20048;-63
2023/10/11 01:09:30;;;;;;;1999.90;999.90;;;;;;;16.80;81.06;101273.91;10170354;29;20060;-63
2023/10/11 01:14:45;;;;;;;1999.90;999.90;;;;;;;16.80;79.87;101266.81;10169526;28;20055;-63
2023/10/11 01:19:51;;;;;;;1999.90;999.90;;;;;;;16.72;80.39;101266.56;10169593;29;20059;-63
2023/10/11 01:24:54;;;;;;;1999.90;999.90;;;;;;;16.77;80.31;101268.88;10199884;28;20044;-63
2023/10/11 01:29:57;;;;;;;1999.90;999.90;;;;;;;16.71;81.82;101264.91;10184194;29;20055;-63
2023/10/11 01:35:01;;;;;;;1999.90;999.90;;;;;;;16.76;80.99;101259.22;10169313;28;20071;-63
2023/10/11 01:40:08;;;;;;;1999.90;999.90;;;;;;;16.76;80.89;101246.88;10168944;29;20135;-63
2023/10/11 01:45:10;;;;;;;1999.90;999.90;;;;;;;16.73;80.27;101244.47;10184456;29;20136;-63
2023/10/11 01:50:14;;;;;;;1999.90;999.90;;;;;;;16.71;80.95;101243.75;10175799;28;20505;-64
2023/10/11 01:55:17;;;;;;;1999.90;999.90;;;;;;;16.71;80.16;101241.09;10190786;28;20052;-63
2023/10/11 02:00:29;;;;;;;1999.90;999.90;;;;;;;16.61;81.23;101237.44;10176051;28;20130;-64
2023/10/11 02:05:32;;;;;;;1999.90;999.90;;;;;;;16.64;81.91;101242.50;10175403;28;20048;-63
2023/10/11 02:10:36;;;;;;;1999.90;999.90;;;;;;;16.60;81.83;101231.31;10175312;28;20473;-63
2023/10/11 02:15:40;;;;;;;1999.90;999.90;;;;;;;16.61;82.24;101230.38;10175535;28;20083;-63
2023/10/11 02:20:46;;;;;;;1999.90;999.90;;;;;;;16.71;83.03;101230.53;10175479;28;20102;-63
2023/10/11 02:25:48;;;;;;;1999.90;999.90;;;;;;;16.54;81.17;101234.41;10175396;29;20052;-63
2023/10/11 02:30:51;;;;;;;1999.90;999.90;;;;;;;16.62;82.08;101221.47;10175154;28;20063;-63
2023/10/11 02:35:58;;;;;;;1999.90;999.90;;;;;;;16.54;81.84;101210.63;10174059;28;20404;-63
2023/10/11 02:41:00;;;;;;;1999.90;999.90;;;;;;;16.45;82.78;101204.25;10174260;29;20508;-63
2023/10/11 02:46:04;;;;;;;1999.90;999.90;;;;;;;16.50;83.26;101195.97;10174723;28;20048;-63
2023/10/11 02:51:13;;;;;;;1999.90;999.90;;;;;;;16.30;83.14;101211.53;10317092;23;20075;-70
2023/10/11 02:56:16;;;;;;;1999.90;999.90;;;;;;;16.26;84.08;101207.44;10504104;28;20171;-70
2023/10/11 03:01:20;;;;;;;1999.90;999.90;;;;;;;16.18;84.01;101207.19;10469549;28;20051;-70
2023/10/11 03:06:27;;;;;;;1999.90;999.90;;;;;;;16.09;83.83;101211.34;10469844;28;20400;-70
2023/10/11 03:11:29;;;;;;;1999.90;999.90;;;;;;;16.07;84.56;101196.56;10503097;28;20560;-70
2023/10/11 03:16:32;;;;;;;1999.90;999.90;;;;;;;15.98;85.18;101198.09;10485805;28;20052;-70
2023/10/11 03:21:34;;;;;;;1999.90;999.90;;;;;;;15.98;85.89;101187.53;10503200;28;20079;-70
2023/10/11 03:26:39;;;;;;;1999.90;999.90;;;;;;;16.03;86.91;101177.47;10502931;28;20090;-70
2023/10/11 03:31:42;;;;;;;1999.90;999.90;;;;;;;15.86;87.33;101180.53;10502777;28;20048;-70
2023/10/11 03:36:58;;;;;;;1999.90;999.90;;;;;;;15.85;88.18;101184.94;10484100;28;20489;-70
2023/10/11 03:42:07;;;;;;;1999.90;999.90;;;;;;;15.79;88.98;101188.03;10502420;28;20050;-70
2023/10/11 03:47:22;;;;;;;1999.90;999.90;;;;;;;15.62;88.92;101183.97;10485470;28;20047;-70
2023/10/11 03:52:30;;;;;;;1999.90;999.90;;;;;;;15.69;90.09;101177.28;10485493;28;20083;-70
2023/10/11 03:57:36;;;;;;;1999.90;999.90;;;;;;;15.69;89.77;101174.66;10501713;28;20060;-70
2023/10/11 04:02:39;;;;;;;1999.90;999.90;;;;;;;15.65;90.38;101170.56;10501536;28;20044;-70
2023/10/11 04:07:41;;;;;;;1999.90;999.90;;;;;;;15.58;91.03;101172.78;10500155;28;20079;-70
2023/10/11 04:12:44;;;;;;;1999.90;999.90;;;;;;;15.45;90.70;101161.44;10501077;28;20052;-70
2023/10/11 04:17:49;;;;;;;1999.90;999.90;;;;;;;15.48;90.98;101158.56;10500770;28;20044;-70
2023/10/11 04:22:57;;;;;;;1999.90;999.90;;;;;;;15.44;92.59;101153.63;10500026;28;20048;-69
2023/10/11 04:28:02;;;;;;;1999.90;999.90;;;;;;;15.39;91.27;101154.78;10500465;28;20075;-69
2023/10/11 04:33:10;;;;;;;1999.90;999.90;;;;;;;15.35;91.60;101144.59;10500264;28;20135;-69
2023/10/11 04:38:13;;;;;;;1999.90;999.90;;;;;;;15.33;92.26;101167.59;10499370;28;20412;-70
2023/10/11 04:43:23;;;;;;;1999.90;999.90;;;;;;;15.45;91.98;101165.84;10499892;28;20072;-69
2023/10/11 04:48:30;;;;;;;1999.90;999.90;;;;;;;15.38;92.31;101173.38;10482568;28;20428;-70
2023/10/11 04:58:52;;;;;;;1999.90;999.90;;;;;;;15.33;93.48;101164.94;10499318;28;20090;-70
2023/10/11 05:04:00;;;;;;;1999.90;999.90;;;;;;;15.36;93.75;101181.38;10499222;28;20053;-69
2023/10/11 05:09:13;;;;;;;1999.90;999.90;;;;;;;15.24;93.27;101183.09;10498485;28;20505;-70
2023/10/11 05:19:38;;;;;;;1999.90;999.90;;;;;;;15.12;94.43;101178.72;10497992;28;20040;-69
2023/10/11 05:50:57;;;;;;;1999.90;999.90;;;;;;;14.95;96.74;101194.88;10497188;28;20304;-70
2023/10/11 05:56:00;;;;;;;1999.90;999.90;;;;;;;15.08;97.71;101190.44;10497747;28;20127;-70
2023/10/11 06:01:11;;;;;;;1999.90;999.90;;;;;;;14.98;98.11;101186.75;10497257;28;20394;-70
2023/10/11 06:11:47;;;;;;;1999.90;999.90;;;;;;;15.01;97.73;101183.88;10497935;28;19999;-70
2023/10/11 06:16:57;;;;;;;1999.90;999.90;;;;;;;15.10;98.47;101182.44;10496907;28;20405;-70
2023/10/11 06:22:00;;;;;;;1999.90;999.90;;;;;;;15.08;98.36;101179.03;10480879;28;20052;-70
2023/10/11 06:32:29;;;;;;;1999.90;999.90;;;;;;;15.18;97.54;101175.66;10478788;28;20048;-70
2023/10/11 06:37:35;;;;;;;1999.90;999.90;;;;;;;15.15;98.65;101165.31;10504558;28;20485;-70
2023/10/11 06:42:37;;;;;;;1999.90;999.90;;;;;;;15.17;98.01;101170.47;10504146;28;20412;-70
2023/10/11 06:47:39;;;;;;;1999.90;999.90;;;;;;;15.30;99.26;101179.22;10504446;28;20059;-70
2023/10/11 06:52:43;;;;;;;1999.90;999.90;;;;;;;15.41;99.23;101181.91;10503439;28;20060;-70
2023/10/11 06:57:50;;;;;;;1999.90;999.90;;;;;;;15.45;98.62;101190.47;10504120;28;20072;-70
2023/10/11 07:03:09;;;;;;;1999.90;999.90;;;;;;;15.58;97.97;101182.50;10486776;28;20048;-70
2023/10/11 07:08:20;;;;;;;1999.90;999.90;;;;;;;15.81;96.81;101177.38;10503878;28;20131;-70
2023/10/11 07:13:22;;;;;;;1999.90;999.90;;;;;;;15.86;96.72;101184.00;10503555;28;20075;-70
2023/10/11 07:18:25;;;;;;;1999.90;999.90;;;;;;;15.93;96.47;101224.00;10502985;28;20040;-69
2023/10/11 07:23:35;;;;;;;1999.90;999.90;;;;;;;16.10;95.76;101226.22;10503047;28;20095;-69
2023/10/11 07:28:38;;;;;;;1999.90;999.90;;;;;;;16.53;94.06;101241.53;10485952;28;20135;-69
2023/10/11 07:33:40;;;;;;;1999.90;999.90;;;;;;;16.59;92.94;101234.91;10502776;28;20082;-69
2023/10/11 07:38:43;;;;;;;1999.90;999.90;;;;;;;16.72;94.08;101243.59;10501961;28;20060;-70
2023/10/11 07:43:46;;;;;;;1999.90;999.90;;;;;;;16.81;92.61;101239.44;10501486;28;20054;-69
2023/10/11 07:48:48;;;;;;;1999.90;999.90;;;;;;;16.66;94.15;101220.28;10483806;28;20551;-70
2023/10/11 07:53:51;;;;;;;1999.90;999.90;;;;;;;16.67;94.99;101208.75;10501102;28;20060;-70
2023/10/11 07:58:56;;;;;;;1999.90;999.90;;;;;;;17.24;93.19;101224.69;10501642;28;20048;-69
2023/10/11 08:03:58;;;;;;;1999.90;999.90;;;;;;;17.49;91.92;101213.00;10500866;28;20413;-70
2023/10/11 08:09:03;;;;;;;1999.90;999.90;;;;;;;17.60;91.53;101222.72;10501247;28;20041;-70
2023/10/11 08:14:14;;;;;;;1999.90;999.90;;;;;;;17.69;91.68;101229.09;10501067;28;20079;-70
2023/10/11 08:19:16;;;;;;;1999.90;999.90;;;;;;;17.08;94.04;101235.66;10500181;28;20487;-69
2023/10/11 08:24:24;;;;;;;1999.90;999.90;;;;;;;17.74;92.06;101227.75;10500665;28;20049;-71
2023/10/11 08:29:30;;;;;;;1999.90;999.90;;;;;;;18.28;89.69;101223.38;10500489;28;20045;-70
2023/10/11 08:34:32;;;;;;;1999.90;999.90;;;;;;;18.90;87.02;101223.53;10500310;28;20052;-70
2023/10/11 08:39:47;;;;;;;1999.90;999.90;;;;;;;19.06;85.17;101223.88;10499355;28;20499;-70
2023/10/11 08:44:49;;;;;;;1999.90;999.90;;;;;;;19.36;82.27;101240.75;10499859;28;20136;-70
2023/10/11 08:49:53;;;;;;;1999.90;999.90;;;;;;;19.77;80.34;101248.69;10499284;28;20056;-70
2023/10/11 08:54:58;;;;;;;1999.90;999.90;;;;;;;19.00;87.28;101252.75;10498795;28;20106;-69
2023/10/11 09:00:04;;;;;;;1999.90;999.90;;;;;;;18.87;88.16;101255.63;10499283;28;20044;-70
2023/10/11 09:05:07;;;;;;;1999.90;999.90;;;;;;;18.45;90.03;101272.31;10482116;28;20072;-70
2023/10/11 09:10:27;;;;;;;1999.90;999.90;;;;;;;18.08;94.73;101288.59;10480625;28;20481;-70
2023/10/11 09:15:45;;;;;;;1999.90;999.90;;;;;;;17.83;95.54;101300.31;10499024;28;20048;-70
2023/10/11 09:21:10;;;;;;;1999.90;999.90;;;;;;;17.73;98.63;101297.56;10498750;28;20059;-70
2023/10/11 09:26:32;;;;;;;1999.90;999.90;;;;;;;18.81;92.42;101280.81;10483803;28;20055;-69
2023/10/11 09:32:04;;;;;;;1999.90;999.90;;;;;;;18.71;91.34;101264.84;10482440;28;20060;-69
2023/10/11 09:37:07;;;;;;;1999.90;999.90;;;;;;;18.57;93.54;101262.50;10482737;28;20048;-70
2023/10/11 09:42:15;;;;;;;1999.90;999.90;;;;;;;18.94;91.39;101272.69;10465207;28;20118;-70
2023/10/11 09:47:19;;;;;;;1999.90;999.90;;;;;;;18.34;93.21;101293.56;10479888;28;20543;-70
2023/10/11 09:52:23;;;;;;;1999.90;999.90;;;;;;;18.14;97.72;101263.41;10497383;28;20136;-70
2023/10/11 09:57:50;;;;;;;1999.90;999.90;;;;;;;18.17;97.56;101290.53;10480675;28;20048;-70
2023/10/11 10:02:54;;;;;;;1999.90;999.90;;;;;;;18.17;98.97;101266.69;10497199;28;20058;-70
2023/10/11 10:08:14;;;;;;;1999.90;999.90;;;;;;;17.96;99.43;101281.66;10468040;28;20052;-69
2023/10/11 10:13:17;;;;;;;1999.90;999.90;;;;;;;17.79;100.00;101291.78;10487521;28;20413;-70
2023/10/11 10:18:23;;;;;;;1999.90;999.90;;;;;;;17.86;100.00;101288.66;10505644;28;20048;-69
2023/10/11 10:23:29;;;;;;;1999.90;999.90;;;;;;;17.79;100.00;101310.31;10488037;28;20102;-70
2023/10/11 10:28:35;;;;;;;1999.90;999.90;;;;;;;17.72;100.00;101317.06;10487376;28;20493;-75
2023/10/11 10:33:38;;;;;;;1999.90;999.90;;;;;;;17.84;100.00;101325.84;10486923;28;20580;-75
2023/10/11 10:39:00;;;;;;;1999.90;999.90;;;;;;;17.69;100.00;101322.59;10486847;28;20485;-72
2023/10/11 10:44:17;;;;;;;1999.90;999.90;;;;;;;17.59;100.00;101329.59;10504076;28;20412;-71
2023/10/11 10:49:42;;;;;;;1999.90;999.90;;;;;;;17.75;100.00;101335.38;10485993;28;20059;-70
2023/10/11 10:55:17;;;;;;;1999.90;999.90;;;;;;;17.71;100.00;101330.44;10504026;28;20127;-73
2023/10/11 11:00:25;;;;;;;1999.90;999.90;;;;;;;17.68;100.00;101344.75;10417523;28;20044;-73
2023/10/11 11:05:29;;;;;;;1999.90;999.90;;;;;;;17.62;100.00;101338.13;10503300;28;20489;-73
2023/10/11 11:10:34;;;;;;;1999.90;999.90;;;;;;;17.62;100.00;101332.84;10503698;28;20063;-73
2023/10/11 11:15:36;;;;;;;1999.90;999.90;;;;;;;17.68;100.00;101318.25;10469618;28;20131;-69
2023/10/11 11:20:41;;;;;;;1999.90;999.90;;;;;;;17.81;100.00;101303.09;10501990;28;20050;-71
2023/10/11 11:25:52;;;;;;;1999.90;999.90;;;;;;;18.03;100.00;101295.25;10502447;28;20490;-71
2023/10/11 11:30:55;;;;;;;1999.90;999.90;;;;;;;18.00;100.00;101286.59;10485363;28;20045;-71
2023/10/11 11:35:59;;;;;;;1999.90;999.90;;;;;;;18.32;100.00;101261.88;10502375;28;20052;-71
2023/10/11 11:41:04;;;;;;;1999.90;999.90;;;;;;;18.36;100.00;101250.09;10484010;28;20076;-72
2023/10/11 11:46:23;;;;;;;1999.90;999.90;;;;;;;18.44;100.00;101244.16;10502953;28;20052;-71
2023/10/11 11:51:26;;;;;;;1999.90;999.90;;;;;;;18.68;100.00;101195.31;10501665;28;20056;-71
2023/10/11 11:56:29;;;;;;;1999.90;999.90;;;;;;;18.59;100.00;101214.66;10501471;28;20045;-71
2023/10/11 12:01:32;;;;;;;1999.90;999.90;;;;;;;18.48;100.00;101216.41;10501671;28;20052;-72
2023/10/11 12:06:36;;;;;;;1999.90;999.90;;;;;;;18.34;100.00;101214.06;10467146;28;20052;-72
2023/10/11 12:11:38;;;;;;;1999.90;999.90;;;;;;;18.11;100.00;101219.47;10501219;28;20098;-73
2023/10/11 12:16:43;;;;;;;1999.90;999.90;;;;;;;18.33;100.00;101229.13;10501034;28;20072;-73
2023/10/11 12:21:46;;;;;;;1999.90;999.90;;;;;;;18.43;100.00;101218.59;10500283;28;20493;-73
2023/10/11 12:26:48;;;;;;;1999.90;999.90;;;;;;;18.33;100.00;101207.09;10501284;28;20040;-71
2023/10/11 12:31:50;;;;;;;1999.90;999.90;;;;;;;18.60;100.00;101208.38;10500053;28;20053;-71
2023/10/11 12:36:53;;;;;;;1999.90;999.90;;;;;;;18.61;100.00;101202.09;10499483;28;20056;-70
2023/10/11 12:41:59;;;;;;;1999.90;999.90;;;;;;;18.63;100.00;101189.56;10500044;28;20050;-70
2023/10/11 12:47:01;;;;;;;1999.90;999.90;;;;;;;18.47;100.00;101197.97;10482666;28;20045;-71
2023/10/11 12:52:05;;;;;;;1999.90;999.90;;;;;;;18.83;100.00;101190.50;10499936;28;20056;-71
2023/10/11 12:57:08;;;;;;;1999.90;999.90;;;;;;;18.96;100.00;101198.25;10498831;28;20114;-71
2023/10/11 13:02:20;;;;;;;1999.90;999.90;;;;;;;18.92;100.00;101210.97;10499614;28;20079;-70
2023/10/11 13:07:26;;;;;;;1999.90;999.90;;;;;;;18.75;100.00;101220.34;10499011;28;20044;-69
2023/10/11 13:12:37;;;;;;;1999.90;999.90;;;;;;;18.63;100.00;101221.38;10498453;28;20452;-70
2023/10/11 13:17:40;;;;;;;1999.90;999.90;;;;;;;18.53;100.00;101230.09;10498842;28;20048;-69
2023/10/11 13:22:42;;;;;;;1999.90;999.90;;;;;;;18.55;100.00;101224.69;10498819;28;20072;-69
2023/10/11 13:27:45;;;;;;;1999.90;999.90;;;;;;;18.84;100.00;101221.38;10499136;28;20086;-70
2023/10/11 13:32:50;;;;;;;1999.90;999.90;;;;;;;19.02;100.00;101217.16;10498505;28;20056;-67
2023/10/11 13:37:53;;;;;;;1999.90;999.90;;;;;;;19.07;100.00;101199.00;10480592;28;20127;-68
2023/10/11 13:42:55;;;;;;;1999.90;999.90;;;;;;;19.25;100.00;101187.78;10497528;28;20142;-67
2023/10/11 13:47:58;;;;;;;1999.90;999.90;;;;;;;19.24;100.00;101178.94;10498175;28;20049;-68
2023/10/11 13:53:02;;;;;;;1999.90;999.90;;;;;;;19.44;100.00;101176.34;10497402;28;20059;-67
2023/10/11 13:58:06;;;;;;;1999.90;999.90;;;;;;;19.56;99.93;101171.75;10480696;28;20050;-67
2023/10/11 14:03:38;;;;;;;1999.90;999.90;;;;;;;19.90;97.04;101155.44;10497932;28;20132;-67
2023/10/11 14:08:43;;;;;;;1999.90;999.90;;;;;;;19.55;98.74;101156.78;10482445;28;20049;-67
2023/10/11 14:13:51;;;;;;;1999.90;999.90;;;;;;;20.66;92.84;101149.31;10497789;28;20056;-68
2023/10/11 14:18:55;;;;;;;1999.90;999.90;;;;;;;20.24;92.03;101142.56;10480019;28;20052;-68
2023/10/11 14:23:58;;;;;;;1999.90;999.90;;;;;;;20.34;93.09;101124.78;10479164;28;20505;-68
2023/10/11 14:29:06;;;;;;;1999.90;999.90;;;;;;;20.23;94.04;101115.13;10497292;28;20048;-67
2023/10/11 14:34:09;;;;;;;1999.90;999.90;;;;;;;20.73;92.41;101114.03;10464715;28;20076;-68
2023/10/11 14:39:17;;;;;;;1999.90;999.90;;;;;;;20.41;92.61;101109.06;10479416;28;20067;-68
2023/10/11 14:44:22;;;;;;;1999.90;999.90;;;;;;;20.72;90.52;101106.19;10497234;28;20072;-68
2023/10/11 14:49:27;;;;;;;1999.90;999.90;;;;;;;20.16;93.81;101091.94;10478946;28;20477;-68
2023/10/11 14:54:30;;;;;;;1999.90;999.90;;;;;;;20.12;94.38;101096.66;10501337;28;20057;-68
2023/10/11 14:59:34;;;;;;;1999.90;999.90;;;;;;;20.43;93.88;101077.84;10504217;28;20044;-68
2023/10/11 15:04:37;;;;;;;1999.90;999.90;;;;;;;20.55;91.92;101068.69;10522630;22;20068;-67
2023/10/11 15:09:39;;;;;;;1999.90;999.90;;;;;;;20.49;94.42;101065.78;10545180;28;20510;-67
2023/10/11 15:14:42;;;;;;;1999.90;999.90;;;;;;;20.22;96.06;101059.44;10526940;28;20511;-67
2023/10/11 15:19:45;;;;;;;1999.90;999.90;;;;;;;20.33;95.24;101056.59;10527316;28;20131;-67
2023/10/11 15:24:48;;;;;;;1999.90;999.90;;;;;;;20.04;100.00;101052.22;10526644;28;20404;-67
2023/10/11 15:29:51;;;;;;;1999.90;999.90;;;;;;;19.35;100.00;101039.97;10544306;28;20510;-67
2023/10/11 15:34:54;;;;;;;1999.90;999.90;;;;;;;19.51;100.00;101043.88;10545269;28;20052;-67
2023/10/11 15:39:57;;;;;;;1999.90;999.90;;;;;;;19.48;100.00;101032.56;10510128;28;20048;-67
2023/10/11 15:44:59;;;;;;;1999.90;999.90;;;;;;;19.49;100.00;101028.09;10544462;28;20134;-67
2023/10/11 15:50:04;;;;;;;1999.90;999.90;;;;;;;19.34;100.00;101011.72;10509784;28;20051;-67
2023/10/11 15:55:07;;;;;;;1999.90;999.90;;;;;;;19.25;100.00;101013.41;10526883;28;20443;-67
2023/10/11 16:00:13;;;;;;;1999.90;999.90;;;;;;;19.17;100.00;101015.09;10525631;28;20044;-67
2023/10/11 16:05:17;;;;;;;1999.90;999.90;;;;;;;19.17;100.00;101009.78;10542582;28;20058;-67
2023/10/11 16:10:19;;;;;;;1999.90;999.90;;;;;;;19.08;100.00;101011.44;10542656;28;20214;-67
2023/10/11 16:15:22;;;;;;;1999.90;999.90;;;;;;;19.17;100.00;101005.31;10541326;28;20481;-67
2023/10/11 16:20:25;;;;;;;1999.90;999.90;;;;;;;18.85;100.00;101009.03;10542867;28;20093;-67
2023/10/11 16:25:29;;;;;;;1999.90;999.90;;;;;;;18.77;100.00;100995.59;10525143;28;20075;-67
2023/10/11 16:30:31;;;;;;;1999.90;999.90;;;;;;;18.73;100.00;100994.19;10542353;28;20085;-67
2023/10/11 16:35:34;;;;;;;1999.90;999.90;;;;;;;18.52;100.00;100997.75;10542263;28;20055;-67
2023/10/11 16:40:36;;;;;;;1999.90;999.90;;;;;;;18.40;100.00;101000.66;10540747;28;20048;-67
2023/10/11 16:45:39;;;;;;;1999.90;999.90;;;;;;;18.38;100.00;100993.66;10541244;28;20040;-69
2023/10/11 16:50:44;;;;;;;1999.90;999.90;;;;;;;18.35;100.00;100995.75;10541870;28;20048;-65
2023/10/11 16:55:47;;;;;;;1999.90;999.90;;;;;;;17.82;100.00;100994.91;10541651;28;20139;-65
2023/10/11 17:00:50;;;;;;;1999.90;999.90;;;;;;;17.86;100.00;101003.44;10540662;28;20396;-64
2023/10/11 17:05:52;;;;;;;1999.90;999.90;;;;;;;17.86;100.00;100998.13;10540767;28;20059;-65
2023/10/11 17:10:58;;;;;;;1999.90;999.90;;;;;;;17.88;100.00;100998.03;10540975;28;20043;-64
2023/10/11 17:16:02;;;;;;;1999.90;999.90;;;;;;;17.87;100.00;100999.00;10540659;28;20404;-64
2023/10/11 17:21:06;;;;;;;1999.90;999.90;;;;;;;18.03;100.00;101011.78;10540644;28;20090;-64
2023/10/11 17:26:17;;;;;;;1999.90;999.90;;;;;;;17.99;100.00;101004.09;10523001;28;20050;-64
2023/10/11 17:31:19;;;;;;;;;;;;;;;17.94;100.00;101008.94;10540897;28;20097;-64
2023/10/11 17:36:22;;;;;;;1999.90;999.90;;;;;;;17.86;100.00;101011.38;10540704;28;19920;-64
2023/10/11 17:41:25;;;;;;;1999.90;999.90;;;;;;;18.12;100.00;101013.63;10522110;28;20385;-64
2023/10/11 17:46:28;;;;;;;1999.90;999.90;;;;;;;18.25;100.00;101003.66;10539641;28;20125;-65
2023/10/11 17:51:31;;;;;;;1999.90;999.90;;;;;;;18.30;100.00;101001.44;10540007;28;20082;-65
2023/10/11 17:56:33;;;;;;;1999.90;999.90;;;;;;;18.52;96.26;101002.22;10539780;28;20090;-65
2023/10/11 18:01:41;;;;;;;1999.90;999.90;;;;;;;18.71;92.93;101001.44;10539765;28;20044;-64
2023/10/11 18:06:46;;;;;;;1999.90;999.90;;;;;;;18.86;90.03;100997.47;10539546;28;20056;-64
2023/10/11 18:11:49;;;;;;;1999.90;999.90;;;;;;;18.69;89.95;101017.50;10521542;28;20052;-65
2023/10/11 18:16:51;;;;;;;1999.90;999.90;;;;;;;18.95;86.72;101011.72;10538685;28;20088;-64
2023/10/11 18:21:56;;;;;;;1999.90;999.90;;;;;;;18.91;88.49;101002.34;10539408;28;20074;-65
2023/10/11 18:27:00;;;;;;;1999.90;999.90;;;;;;;18.94;87.94;101010.84;10522126;28;20050;-64
2023/10/11 18:32:04;;;;;;;1999.90;999.90;;;;;;;18.86;87.59;101020.47;10546613;28;20443;-64
2023/10/11 18:37:09;;;;;;;1999.90;999.90;;;;;;;18.93;87.18;101033.06;10547122;28;20134;-65
2023/10/11 18:42:12;;;;;;;1999.90;999.90;;;;;;;18.87;87.67;101046.88;10546878;28;20082;-65
2023/10/11 18:47:15;;;;;;;1999.90;999.90;;;;;;;18.89;86.50;101047.56;10528925;28;20044;-65
2023/10/11 18:52:17;;;;;;;1999.90;999.90;;;;;;;18.89;86.13;101028.16;10546504;28;20060;-65
2023/10/11 18:57:20;;;;;;;1999.90;999.90;;;;;;;18.86;85.64;101015.16;10527766;28;20439;-65
2023/10/11 19:02:22;;;;;;;1999.90;999.90;;;;;;;18.88;84.21;101007.94;10545539;28;20060;-65
2023/10/11 19:07:25;;;;;;;1999.90;999.90;;;;;;;18.79;85.81;101014.84;10544406;28;20097;-65
2023/10/11 19:12:30;;;;;;;1999.90;999.90;;;;;;;18.86;83.90;101001.91;10545668;28;20086;-65
2023/10/11 19:17:38;;;;;;;1999.90;999.90;;;;;;;18.67;84.25;101019.44;10528471;28;20048;-64
2023/10/11 19:22:43;;;;;;;1999.90;999.90;;;;;;;18.88;82.42;100992.84;10545306;28;20087;-65
2023/10/11 19:27:45;;;;;;;1999.90;999.90;;;;;;;18.92;82.74;100985.47;10527231;28;20079;-65
2023/10/11 19:32:48;;;;;;;1999.90;999.90;;;;;;;18.78;81.28;101014.97;10544300;28;20048;-65
2023/10/11 19:37:52;;;;;;;1999.90;999.90;;;;;;;18.82;80.42;101011.94;10526273;28;20075;-64
2023/10/11 19:42:55;;;;;;;1999.90;999.90;;;;;;;18.66;81.04;101007.16;10525374;28;20083;-65
2023/10/11 19:47:58;;;;;;;1999.90;999.90;;;;;;;18.58;81.06;100999.03;10544244;28;20059;-65
2023/10/11 19:53:00;;;;;;;1999.90;999.90;;;;;;;18.59;81.08;101010.47;10543475;28;20113;-65
2023/10/11 19:58:03;;;;;;;1999.90;999.90;;;;;;;18.47;81.76;101012.38;10543114;28;20576;-65
2023/10/11 20:03:05;;;;;;;1999.90;999.90;;;;;;;18.51;81.28;100990.78;10543000;28;20102;-64
2023/10/11 20:08:08;;;;;;;1999.90;999.90;;;;;;;18.69;79.90;100983.03;10543247;28;20076;-64
2023/10/11 20:13:11;;;;;;;1999.90;999.90;;;;;;;18.53;81.41;100986.19;10525354;28;20051;-65
2023/10/11 20:18:13;;;;;;;1999.90;999.90;;;;;;;18.48;82.31;100991.06;10542366;28;20110;-64
2023/10/11 20:23:16;;;;;;;1999.90;999.90;;;;;;;18.43;82.03;100987.13;10542228;28;20450;-65
2023/10/11 20:28:19;;;;;;;1999.90;999.90;;;;;;;18.43;82.32;100987.97;10542624;28;20058;-65
2023/10/11 20:33:22;;;;;;;1999.90;999.90;;;;;;;18.22;82.60;100990.66;10541814;28;20052;-65
2023/10/11 20:38:25;;;;;;;1999.90;999.90;;;;;;;18.11;84.31;101006.69;10542223;28;20043;-65
2023/10/11 20:43:27;;;;;;;1999.90;999.90;;;;;;;18.29;81.89;101007.72;10523724;28;20496;-64
2023/10/11 20:48:35;;;;;;;1999.90;999.90;;;;;;;18.27;81.53;101016.78;10541976;28;20040;-64
2023/10/11 20:53:37;;;;;;;1999.90;999.90;;;;;;;18.34;80.35;101020.56;10523757;28;20078;-65
2023/10/11 20:58:54;;;;;;;1999.90;999.90;;;;;;;18.32;80.05;101019.88;10541460;28;20044;-64
2023/10/11 21:03:57;;;;;;;1999.90;999.90;;;;;;;18.25;79.74;101022.19;10540694;28;20075;-65
2023/10/11 21:08:59;;;;;;;1999.90;999.90;;;;;;;18.18;80.31;101021.06;10540674;28;20385;-65
2023/10/11 21:14:02;;;;;;;1999.90;999.90;;;;;;;18.40;79.00;101006.78;10540962;28;20052;-65
2023/10/11 21:19:05;;;;;;;1999.90;999.90;;;;;;;18.24;80.32;101011.72;10540111;28;20044;-65
2023/10/11 21:24:08;;;;;;;1999.90;999.90;;;;;;;18.28;79.62;101013.16;10505607;28;20519;-65
2023/10/11 21:29:10;;;;;;;1999.90;999.90;;;;;;;18.34;79.48;100997.56;10539858;28;20503;-65
2023/10/11 21:34:13;;;;;;;1999.90;999.90;;;;;;;18.15;82.07;101013.38;10540870;28;20135;-65
2023/10/11 21:39:18;;;;;;;1999.90;999.90;;;;;;;18.19;80.70;101015.63;10539563;28;20475;-65
2023/10/11 21:44:21;;;;;;;1999.90;999.90;;;;;;;18.19;79.33;101012.97;10540231;28;20044;-64
2023/10/11 21:49:24;;;;;;;1999.90;999.90;;;;;;;18.27;80.88;100996.41;10539363;28;20050;-65
2023/10/11 21:54:28;;;;;;;1999.90;999.90;;;;;;;18.04;81.16;101011.66;10539946;28;20051;-65
2023/10/11 21:59:31;;;;;;;1999.90;999.90;;;;;;;17.96;82.80;100988.47;10539133;28;20476;-65
2023/10/11 22:04:33;;;;;;;1999.90;999.90;;;;;;;18.03;81.38;100987.94;10544554;28;20408;-65
2023/10/11 22:09:41;;;;;;;1999.90;999.90;;;;;;;17.87;81.23;100981.31;10547851;28;20055;-65
2023/10/11 22:14:44;;;;;;;1999.90;999.90;;;;;;;17.96;81.66;100964.63;10548061;28;20048;-65
2023/10/11 22:19:47;;;;;;;1999.90;999.90;;;;;;;17.84;83.57;100955.06;10547080;28;20503;-65
2023/10/11 22:24:52;;;;;;;1999.90;999.90;;;;;;;17.75;82.34;100955.81;10547029;28;20408;-65
2023/10/11 22:29:54;;;;;;;1999.90;999.90;;;;;;;17.79;83.82;100958.09;10546789;28;20455;-65
2023/10/11 22:34:57;;;;;;;1999.90;999.90;;;;;;;17.55;83.47;100970.75;10547384;28;20044;-65
2023/10/11 22:39:59;;;;;;;1999.90;999.90;;;;;;;17.72;83.88;100983.44;10529002;28;20072;-65
2023/10/11 22:45:05;;;;;;;1999.90;999.90;;;;;;;17.58;84.31;100999.63;10547369;28;20076;-65
2023/10/11 22:50:07;;;;;;;1999.90;999.90;;;;;;;17.69;83.73;101010.16;10546326;28;20464;-65
2023/10/11 22:55:09;;;;;;;1999.90;999.90;;;;;;;17.69;84.82;100996.09;10546952;28;20076;-65